Time;durP1;ratioP1;P1;durP2;ratioP2;P2;SDS_P1;SDS_P2;PMS_P1;PMS_P2;Temp;Humidity;BMP_temperature;BMP_pressure;BME280_temperature;BME280_humidity;BME280_pressure;Samples;Min_cycle;Max_cycle;Signal;HPM_P1;HPM_P2
2023/01/17 00:00:02;;;;;;;1.47;1.10;;;;;;;5.15;59.72;92900.38;5071510;28;20285;-82
2023/01/17 00:02:29;;;;;;;0.83;0.80;;;;;;;5.15;59.58;92902.16;5071500;28;20204;-82
2023/01/17 00:10:27;;;;;;;1.20;0.87;;;;;;;4.97;60.50;92897.00;5066570;28;20199;-82
2023/01/17 00:12:56;;;;;;;1.40;0.80;;;;;;;4.92;60.54;92912.13;5075580;28;20239;-81
2023/01/17 00:15:23;;;;;;;1.07;0.80;;;;;;;4.84;61.09;92908.84;5075417;28;20239;-82
2023/01/17 00:17:50;;;;;;;0.90;0.70;;;;;;;4.88;60.90;92916.09;5075516;28;20229;-82
2023/01/17 00:26:05;;;;;;;0.90;0.73;;;;;;;4.77;61.85;92912.44;5075327;28;20789;-81
2023/01/17 01:35:24;;;;;;;1.27;0.70;;;;;;;4.43;61.21;92983.16;5072868;28;20223;-81
2023/01/17 01:37:51;;;;;;;0.60;0.60;;;;;;;4.50;60.73;92983.16;5072960;28;20192;-82
2023/01/17 01:40:19;;;;;;;0.80;0.70;;;;;;;4.54;60.81;92976.66;5073334;28;20193;-82
2023/01/17 01:42:52;;;;;;;1.23;0.70;;;;;;;4.49;60.45;92968.84;5073912;28;20219;-82
2023/01/17 01:45:21;;;;;;;0.70;0.70;;;;;;;4.54;60.36;92976.66;5074013;28;20223;-81
2023/01/17 01:47:49;;;;;;;0.93;0.70;;;;;;;4.48;60.31;92964.72;5073269;28;20201;-81
2023/01/17 01:50:19;;;;;;;1.03;0.70;;;;;;;4.46;60.04;92970.03;5073369;28;20621;-81
2023/01/17 01:52:48;;;;;;;0.60;0.60;;;;;;;4.44;60.30;92982.19;5073810;28;20201;-81
2023/01/17 01:55:18;;;;;;;2.57;0.73;;;;;;;4.43;60.00;92972.97;5073478;28;20667;-82
2023/01/17 01:57:48;;;;;;;0.50;0.50;;;;;;;4.35;59.86;92978.31;5073092;28;20246;-82
2023/01/17 02:00:20;;;;;;;0.50;0.50;;;;;;;4.34;60.04;92984.41;5073533;28;20208;-82
2023/01/17 02:02:48;;;;;;;0.50;0.50;;;;;;;4.33;59.72;92979.50;5073722;28;20685;-81
2023/01/17 02:05:17;;;;;;;1.33;0.80;;;;;;;4.33;60.12;92980.28;5073299;28;20291;-82
2023/01/17 02:07:50;;;;;;;0.73;0.73;;;;;;;4.39;59.61;92978.69;5073272;28;20224;-82
2023/01/17 02:10:17;;;;;;;0.63;0.60;;;;;;;4.42;59.68;92971.44;5073694;28;20196;-82
2023/01/17 02:12:44;;;;;;;1.30;0.63;;;;;;;4.42;59.91;92976.53;5073328;28;20628;-82
2023/01/17 02:15:11;;;;;;;0.63;0.60;;;;;;;4.33;59.84;92980.28;5073237;28;20636;-81
2023/01/17 02:17:50;;;;;;;0.63;0.60;;;;;;;4.41;60.17;92985.16;5072268;28;21045;-82
2023/01/17 02:20:42;;;;;;;0.80;0.70;;;;;;;4.35;59.90;92978.31;5052885;28;20205;-81
2023/01/17 02:23:43;;;;;;;0.60;0.60;;;;;;;4.27;60.20;92977.75;5072765;28;20250;-82
2023/01/17 02:26:48;;;;;;;0.60;0.60;;;;;;;4.22;60.70;92985.25;5072039;28;20220;-82
2023/01/17 02:29:45;;;;;;;0.60;0.60;;;;;;;4.23;60.84;92972.31;5072664;28;20303;-82
2023/01/17 02:32:25;;;;;;;1.30;0.50;;;;;;;4.25;60.76;92982.25;5071742;28;20210;-81
2023/01/17 02:35:01;;;;;;;0.67;0.50;;;;;;;4.11;60.86;92977.22;5071741;28;20200;-82
2023/01/17 02:37:37;;;;;;;1.03;0.60;;;;;;;4.19;61.17;92978.78;5072234;28;20743;-82
2023/01/17 02:40:10;;;;;;;0.60;0.60;;;;;;;4.21;61.30;92979.38;5071583;28;20219;-82
2023/01/17 02:42:41;;;;;;;1.33;0.70;;;;;;;4.27;61.02;92977.75;5071681;28;20193;-82
2023/01/17 02:45:14;;;;;;;0.87;0.50;;;;;;;4.26;60.69;92976.97;5072102;28;20338;-82
2023/01/17 02:47:42;;;;;;;0.87;0.70;;;;;;;4.22;60.65;92987.78;5072020;28;20220;-82
2023/01/17 02:50:10;;;;;;;0.87;0.60;;;;;;;4.22;61.01;92969.97;5072044;28;20201;-81
2023/01/17 02:52:49;;;;;;;2.20;0.80;;;;;;;4.20;60.84;92975.25;5071878;28;20204;-81
2023/01/17 02:55:27;;;;;;;0.87;0.57;;;;;;;4.26;61.03;92973.66;5071958;28;20722;-82
2023/01/17 02:58:12;;;;;;;2.07;0.80;;;;;;;4.27;60.60;92976.00;5070365;28;20212;-81
2023/01/17 03:00:46;;;;;;;1.03;0.70;;;;;;;4.35;60.48;92975.78;5072062;28;20201;-82
2023/01/17 03:03:22;;;;;;;0.90;0.70;;;;;;;4.41;60.35;92971.63;5071465;28;20208;-82
2023/01/17 03:05:53;;;;;;;0.70;0.70;;;;;;;4.31;60.29;92984.78;5071977;28;20216;-82
2023/01/17 03:08:21;;;;;;;1.07;0.70;;;;;;;4.30;60.42;92982.44;5071538;28;20691;-82
2023/01/17 03:10:47;;;;;;;0.93;0.90;;;;;;;4.33;60.22;92984.59;5071218;28;20201;-82
2023/01/17 03:13:14;;;;;;;1.27;0.73;;;;;;;4.28;60.65;92981.88;5071195;28;20209;-82
2023/01/17 03:15:40;;;;;;;0.77;0.60;;;;;;;4.37;60.58;92980.66;5070671;28;20283;-81
2023/01/17 03:18:12;;;;;;;1.23;0.70;;;;;;;4.37;60.07;92978.13;5071598;28;20220;-82
2023/01/17 03:20:40;;;;;;;0.83;0.60;;;;;;;4.28;60.56;92980.09;5071610;28;20242;-82
2023/01/17 03:23:07;;;;;;;0.60;0.60;;;;;;;4.33;60.59;92985.38;5071819;28;20243;-82
2023/01/17 03:25:33;;;;;;;0.60;0.50;;;;;;;4.35;60.50;92991.06;5071742;28;20192;-82
2023/01/17 03:28:00;;;;;;;0.70;0.60;;;;;;;4.40;60.43;92988.69;5071183;28;20216;-82
2023/01/17 03:30:26;;;;;;;0.60;0.50;;;;;;;4.30;60.52;92988.31;5071459;28;20197;-81
2023/01/17 03:32:53;;;;;;;2.63;0.60;;;;;;;4.34;60.20;92994.59;5072133;28;20218;-81
2023/01/17 03:35:19;;;;;;;0.93;0.60;;;;;;;4.32;60.57;92994.00;5071100;28;20687;-82
2023/01/17 03:37:47;;;;;;;1.50;0.63;;;;;;;4.35;60.15;92991.06;5072083;28;20746;-82
2023/01/17 03:40:13;;;;;;;0.50;0.50;;;;;;;4.34;60.04;92992.03;5071978;28;20193;-81
2023/01/17 03:42:42;;;;;;;0.50;0.50;;;;;;;4.38;59.96;92993.19;5071650;28;20204;-81
2023/01/17 03:45:09;;;;;;;1.17;0.70;;;;;;;4.47;59.96;92996.28;5066754;28;20224;-81
2023/01/17 03:47:36;;;;;;;0.67;0.50;;;;;;;4.49;59.94;92991.78;5075450;28;20246;-82
2023/01/17 03:50:02;;;;;;;0.80;0.50;;;;;;;4.50;59.90;92994.13;5075106;28;20224;-82
2023/01/17 03:52:29;;;;;;;0.50;0.50;;;;;;;4.49;59.47;92994.31;5075191;28;20224;-82
2023/01/17 03:54:57;;;;;;;0.60;0.60;;;;;;;4.48;59.82;92992.75;5075182;28;20197;-82
2023/01/17 03:57:23;;;;;;;2.97;0.90;;;;;;;4.46;60.05;92999.81;5074200;28;20204;-82
2023/01/17 03:59:49;;;;;;;0.63;0.50;;;;;;;4.45;59.89;92998.25;5075299;28;20720;-82
2023/01/17 04:02:16;;;;;;;0.50;0.50;;;;;;;4.46;60.00;92998.06;5075360;28;20304;-82
2023/01/17 04:04:42;;;;;;;0.57;0.57;;;;;;;4.46;59.56;93002.34;5079794;28;20446;-82
2023/01/17 04:07:09;;;;;;;0.60;0.60;;;;;;;4.40;59.67;92998.88;5088759;28;20216;-81
2023/01/17 04:09:35;;;;;;;2.50;0.67;;;;;;;4.37;60.10;92998.50;5088071;28;20319;-81
2023/01/17 04:12:03;;;;;;;0.73;0.60;;;;;;;4.38;59.84;92998.28;5088290;28;20201;-81
2023/01/17 04:14:30;;;;;;;0.50;0.50;;;;;;;4.39;59.52;92991.44;5088240;28;20196;-81
2023/01/17 04:16:56;;;;;;;0.70;0.70;;;;;;;4.38;59.73;92989.88;5088503;28;20211;-81
2023/01/17 04:19:23;;;;;;;0.70;0.70;;;;;;;4.36;59.49;92990.06;5087430;28;20209;-81
2023/01/17 04:21:50;;;;;;;1.07;0.80;;;;;;;4.37;59.57;92990.84;5087517;28;20201;-81
2023/01/17 04:24:16;;;;;;;0.50;0.50;;;;;;;4.30;59.85;92987.53;5086316;28;20192;-82
2023/01/17 04:26:42;;;;;;;0.50;0.50;;;;;;;4.30;59.75;92987.53;5086279;28;20217;-81
2023/01/17 04:29:10;;;;;;;2.30;0.70;;;;;;;4.28;60.11;92985.19;5058179;28;20226;-82
2023/01/17 04:31:36;;;;;;;2.73;0.63;;;;;;;4.28;59.77;92990.28;5059053;28;20221;-81
2023/01/17 04:34:03;;;;;;;0.70;0.70;;;;;;;4.24;59.76;92995.97;5077855;28;20193;-82
2023/01/17 04:36:29;;;;;;;1.23;0.70;;;;;;;4.29;59.78;92996.94;5077950;28;20208;-82
2023/01/17 04:38:56;;;;;;;0.40;0.40;;;;;;;4.26;59.96;92994.00;5077202;28;20221;-82
2023/01/17 04:41:22;;;;;;;3.60;0.80;;;;;;;4.29;59.63;92998.72;5077663;28;20251;-82
2023/01/17 04:43:48;;;;;;;1.60;0.73;;;;;;;4.28;59.93;92995.38;5078565;28;20193;-82
2023/01/17 04:46:16;;;;;;;0.50;0.50;;;;;;;4.22;59.94;92993.66;5076837;28;20196;-82
2023/01/17 04:48:43;;;;;;;0.50;0.50;;;;;;;4.20;59.85;92995.63;5077453;28;20286;-81
2023/01/17 04:51:09;;;;;;;0.87;0.80;;;;;;;4.22;59.87;92997.97;5077685;28;20258;-82
2023/01/17 04:53:36;;;;;;;1.00;0.77;;;;;;;4.22;59.91;92992.88;5076764;28;20200;-82
2023/01/17 04:56:02;;;;;;;0.60;0.60;;;;;;;4.23;59.62;92997.78;5076048;28;20197;-81
2023/01/17 04:58:29;;;;;;;0.83;0.70;;;;;;;4.21;59.93;92984.47;5077084;28;20220;-85
2023/01/17 05:00:55;;;;;;;1.10;0.80;;;;;;;4.20;60.33;92982.88;5077712;28;20204;-82
2023/01/17 05:03:23;;;;;;;1.87;0.80;;;;;;;4.09;60.24;92986.03;5071550;28;20234;-82
2023/01/17 05:05:50;;;;;;;0.90;0.80;;;;;;;4.08;59.79;92980.16;5075062;28;20213;-81
2023/01/17 05:08:16;;;;;;;0.77;0.70;;;;;;;4.09;60.13;92983.50;5073501;28;20299;-82
2023/01/17 05:10:45;;;;;;;2.83;0.60;;;;;;;4.05;60.09;92985.66;5069062;28;20248;-82
2023/01/17 05:13:12;;;;;;;1.07;0.60;;;;;;;4.07;60.12;92990.56;5074248;28;20242;-82
2023/01/17 05:15:39;;;;;;;1.47;0.80;;;;;;;4.01;60.14;92991.38;5077134;28;20204;-82
2023/01/17 05:18:07;;;;;;;0.70;0.70;;;;;;;3.99;60.59;92996.66;5076203;28;20205;-82
2023/01/17 05:20:35;;;;;;;1.23;0.70;;;;;;;4.06;60.36;92999.94;5068086;28;20212;-82
2023/01/17 05:23:02;;;;;;;0.67;0.67;;;;;;;4.03;60.16;93007.22;5072116;28;20201;-82
2023/01/17 05:25:30;;;;;;;0.80;0.60;;;;;;;4.05;60.22;93015.41;5069748;28;20193;-82
2023/01/17 05:27:58;;;;;;;1.10;0.60;;;;;;;4.05;60.62;93012.88;5067776;28;20224;-82
2023/01/17 05:30:26;;;;;;;1.03;0.60;;;;;;;4.10;60.40;93013.84;5070487;28;20212;-82
2023/01/17 05:32:55;;;;;;;2.13;0.87;;;;;;;4.14;60.52;93014.25;5069157;28;20204;-82
2023/01/17 05:35:23;;;;;;;2.63;0.60;;;;;;;4.09;60.28;93019.91;5076475;28;20196;-84
2023/01/17 05:37:51;;;;;;;0.90;0.70;;;;;;;4.10;60.65;93023.25;5076589;28;20451;-82
2023/01/17 05:40:18;;;;;;;1.03;0.60;;;;;;;4.15;60.14;93020.91;5077260;28;20199;-82
2023/01/17 05:42:46;;;;;;;0.93;0.70;;;;;;;4.12;60.46;93028.94;5075782;28;20197;-83
2023/01/17 05:45:15;;;;;;;1.40;0.60;;;;;;;4.12;60.29;93031.47;5077119;28;20224;-82
2023/01/17 05:47:42;;;;;;;0.80;0.70;;;;;;;4.07;60.53;93039.69;5076532;28;20215;-83
2023/01/17 05:50:10;;;;;;;1.30;0.80;;;;;;;3.98;61.18;93045.22;5076973;28;20243;-83
2023/01/17 05:52:36;;;;;;;0.70;0.60;;;;;;;3.96;61.27;93039.53;5077433;28;20200;-82
2023/01/17 05:55:06;;;;;;;1.50;0.80;;;;;;;4.00;60.97;93043.25;5075409;28;20196;-82
2023/01/17 05:57:32;;;;;;;1.70;0.83;;;;;;;4.02;60.77;93044.63;5075950;28;20264;-85
2023/01/17 05:59:59;;;;;;;0.83;0.80;;;;;;;3.95;60.96;93043.84;5079588;28;20227;-85
2023/01/17 06:02:25;;;;;;;1.37;0.83;;;;;;;3.93;61.39;93045.81;5079470;28;20209;-84
2023/01/17 06:04:52;;;;;;;0.87;0.87;;;;;;;3.95;61.02;93048.16;5078838;28;20196;-82
2023/01/17 06:07:18;;;;;;;1.73;0.80;;;;;;;3.95;61.40;93050.69;5079693;28;20243;-82
2023/01/17 06:09:44;;;;;;;0.70;0.70;;;;;;;3.99;60.95;93042.47;5078376;28;20235;-82
2023/01/17 06:12:12;;;;;;;1.03;0.93;;;;;;;3.99;61.30;93039.94;5079186;28;20208;-82
2023/01/17 06:14:41;;;;;;;1.33;0.80;;;;;;;3.94;61.02;93042.28;5078479;28;20204;-82
2023/01/17 06:17:13;;;;;;;1.03;0.93;;;;;;;3.99;61.20;93037.38;5078009;28;20208;-82
2023/01/17 06:19:40;;;;;;;2.40;0.90;;;;;;;4.03;60.90;93041.09;5077408;28;20224;-82
2023/01/17 06:22:07;;;;;;;0.97;0.63;;;;;;;3.99;60.85;93037.38;5079329;28;20200;-82
2023/01/17 06:24:33;;;;;;;0.90;0.80;;;;;;;4.08;60.60;93035.41;5078200;28;20200;-82
2023/01/17 06:27:00;;;;;;;1.23;0.80;;;;;;;4.10;60.93;93031.66;5077478;28;20266;-83
2023/01/17 06:29:27;;;;;;;0.87;0.77;;;;;;;4.06;60.67;93025.41;5076870;28;20221;-82
2023/01/17 06:31:54;;;;;;;0.70;0.70;;;;;;;4.04;61.32;93021.53;5076588;28;20599;-82
2023/01/17 06:34:20;;;;;;;15.60;4.20;;;;;;;4.02;67.44;93020.94;5076875;28;20205;-82
2023/01/17 06:36:47;;;;;;;24.60;5.73;;;;;;;4.08;70.77;93023.44;5077248;28;20211;-82
2023/01/17 06:39:13;;;;;;;10.63;5.27;;;;;;;4.14;63.17;93019.31;5077105;28;20223;-85
2023/01/17 06:41:40;;;;;;;11.07;5.97;;;;;;;4.19;61.92;93029.69;5078396;28;20212;-82
2023/01/17 06:44:07;;;;;;;6.53;4.50;;;;;;;4.21;61.19;93021.88;5078072;28;20730;-82
2023/01/17 06:46:39;;;;;;;4.10;1.50;;;;;;;4.53;83.49;93028.59;5081067;28;20228;-85
2023/01/17 06:49:08;;;;;;;1.70;1.23;;;;;;;4.69;63.86;93023.03;5079159;28;20229;-85
2023/01/17 06:51:38;;;;;;;3.10;0.93;;;;;;;4.64;62.38;93027.94;5080653;28;20208;-85
2023/01/17 06:54:05;;;;;;;1.50;0.93;;;;;;;4.53;61.75;93030.38;5081271;28;20676;-85
2023/01/17 06:56:32;;;;;;;1.00;0.90;;;;;;;4.45;61.88;93032.16;5080494;28;20211;-85
2023/01/17 06:58:58;;;;;;;2.40;1.17;;;;;;;4.35;61.54;93025.94;5080576;28;20221;-84
2023/01/17 07:01:27;;;;;;;3.40;1.33;;;;;;;4.32;61.67;93024.56;5080535;28;20266;-85
2023/01/17 07:03:58;;;;;;;22.07;15.43;;;;;;;4.28;62.14;93031.03;5080930;28;20215;-85
2023/01/17 07:06:27;;;;;;;27.23;18.07;;;;;;;4.30;61.88;93028.28;5080523;28;20204;-85
2023/01/17 07:08:57;;;;;;;15.67;10.87;;;;;;;4.31;61.83;93022.22;5079911;28;20227;-84
2023/01/17 07:11:26;;;;;;;2.67;2.23;;;;;;;4.27;61.98;93016.72;5080870;28;20205;-85
2023/01/17 07:13:52;;;;;;;1.60;1.37;;;;;;;4.23;61.93;93022.44;5080411;28;20205;-84
2023/01/17 07:16:18;;;;;;;1.67;1.50;;;;;;;4.24;61.62;93019.69;5080112;28;20275;-85
2023/01/17 07:18:50;;;;;;;1.37;1.17;;;;;;;4.28;61.71;93020.06;5079790;28;20220;-84
2023/01/17 07:21:17;;;;;;;2.50;1.17;;;;;;;4.28;61.78;93020.06;5079908;28;20227;-84
2023/01/17 07:23:44;;;;;;;2.10;1.30;;;;;;;4.29;61.35;93019.88;5080220;28;20197;-84
2023/01/17 07:26:10;;;;;;;4.77;1.33;;;;;;;4.29;61.31;93009.69;5078708;28;20267;-84
2023/01/17 07:28:37;;;;;;;3.00;1.27;;;;;;;4.31;61.29;93017.91;5078001;28;20251;-85
2023/01/17 07:31:07;;;;;;;2.13;1.60;;;;;;;4.31;61.11;93017.91;5080149;28;20205;-84
2023/01/17 07:33:34;;;;;;;3.33;1.63;;;;;;;4.32;61.32;93022.00;5079375;28;20201;-83
2023/01/17 07:36:04;;;;;;;2.53;1.60;;;;;;;4.34;61.05;93011.63;5078670;28;20803;-84
2023/01/17 07:38:31;;;;;;;2.10;1.60;;;;;;;4.45;61.05;93011.75;5077299;28;20228;-84
2023/01/17 07:40:59;;;;;;;2.50;1.30;;;;;;;4.64;60.59;93015.22;5078599;28;20655;-84
2023/01/17 07:43:26;;;;;;;3.43;1.30;;;;;;;4.78;60.36;93023.59;5078479;28;20241;-84
2023/01/17 07:45:52;;;;;;;2.37;1.37;;;;;;;4.88;60.23;93016.28;5078918;28;20248;-85
2023/01/17 07:48:20;;;;;;;2.50;1.30;;;;;;;4.85;59.42;93012.34;5077782;28;20232;-84
2023/01/17 07:50:51;;;;;;;2.60;1.17;;;;;;;4.83;59.46;93009.22;5078453;28;20196;-84
2023/01/17 07:53:18;;;;;;;3.10;1.60;;;;;;;4.84;59.26;93007.47;5079087;28;20205;-84
2023/01/17 07:55:48;;;;;;;3.67;1.30;;;;;;;4.91;58.89;92995.47;5078541;28;20209;-85
2023/01/17 07:58:15;;;;;;;4.53;1.50;;;;;;;5.01;59.19;92990.69;5079424;28;20216;-84
2023/01/17 08:00:43;;;;;;;2.33;1.17;;;;;;;4.98;58.38;92987.78;5080089;28;20196;-84
2023/01/17 08:03:12;;;;;;;1.73;1.50;;;;;;;4.98;58.79;92986.03;5079055;28;20239;-84
2023/01/17 08:05:41;;;;;;;1.63;1.47;;;;;;;4.84;59.38;92981.97;5079206;28;20197;-84
2023/01/17 08:08:07;;;;;;;2.67;1.40;;;;;;;4.89;59.16;92978.81;5078754;28;20899;-84
2023/01/17 08:10:34;;;;;;;6.47;1.50;;;;;;;5.14;58.18;92987.28;5069986;28;20217;-84
2023/01/17 08:13:02;;;;;;;1.77;1.30;;;;;;;5.34;57.71;92977.72;5058248;28;20205;-85
2023/01/17 08:15:28;;;;;;;2.53;1.30;;;;;;;5.59;57.39;92975.13;5058911;28;20572;-84
2023/01/17 08:17:56;;;;;;;2.67;1.37;;;;;;;5.73;56.55;92981.69;5057342;28;20201;-84
2023/01/17 08:20:23;;;;;;;5.13;1.30;;;;;;;5.80;56.20;92989.28;5064120;28;20207;-84
2023/01/17 08:22:53;;;;;;;2.70;1.00;;;;;;;5.77;55.66;92982.81;5079281;28;20197;-84
2023/01/17 08:25:20;;;;;;;2.20;1.50;;;;;;;5.66;55.70;92978.41;5078494;28;20208;-84
2023/01/17 08:27:46;;;;;;;3.47;1.73;;;;;;;5.61;56.54;92980.81;5078730;28;20229;-84
2023/01/17 08:30:14;;;;;;;2.70;1.50;;;;;;;5.64;56.66;92982.16;5078317;28;20221;-84
2023/01/17 08:32:41;;;;;;;3.10;1.20;;;;;;;5.67;55.79;92974.88;5082335;28;20231;-84
2023/01/17 08:35:10;;;;;;;1.37;1.27;;;;;;;5.70;56.23;92977.00;5081719;28;20201;-84
2023/01/17 08:37:37;;;;;;;1.93;1.10;;;;;;;5.73;56.01;92976.59;5081358;28;20227;-84
2023/01/17 08:40:05;;;;;;;4.20;1.53;;;;;;;5.74;55.75;92977.38;5079094;28;20220;-84
2023/01/17 08:42:36;;;;;;;2.17;1.30;;;;;;;5.83;55.52;92978.66;5079856;28;20201;-84
2023/01/17 08:45:04;;;;;;;3.73;1.77;;;;;;;5.81;55.32;92971.19;5079790;28;20205;-84
2023/01/17 08:47:32;;;;;;;5.10;1.77;;;;;;;5.73;54.99;92966.38;5078628;28;20200;-84
2023/01/17 08:49:59;;;;;;;4.00;1.60;;;;;;;5.71;55.26;92960.72;5080706;28;20224;-84
2023/01/17 08:52:26;;;;;;;3.57;1.40;;;;;;;5.80;55.11;92968.84;5080911;28;20201;-84
2023/01/17 08:54:53;;;;;;;4.77;1.70;;;;;;;5.88;54.96;92961.75;5080347;28;20575;-84
2023/01/17 08:57:19;;;;;;;3.40;1.40;;;;;;;5.97;55.39;92954.56;5080156;28;20253;-84
2023/01/17 08:59:46;;;;;;;3.23;1.40;;;;;;;6.08;54.69;92953.09;5080035;28;20224;-84
2023/01/17 09:02:14;;;;;;;2.90;1.30;;;;;;;6.32;54.60;92954.00;5080505;28;20746;-84
2023/01/17 09:04:45;;;;;;;3.70;1.70;;;;;;;6.51;53.88;92952.97;5081011;28;20197;-84
2023/01/17 09:07:12;;;;;;;3.10;1.43;;;;;;;6.79;53.24;92958.28;5081005;28;20204;-84
2023/01/17 09:09:38;;;;;;;1.63;1.20;;;;;;;6.89;52.74;92965.44;5080380;28;20645;-84
2023/01/17 09:12:05;;;;;;;1.77;1.10;;;;;;;6.98;52.26;92968.47;5080210;28;20446;-85
2023/01/17 09:14:31;;;;;;;2.03;1.50;;;;;;;6.86;51.98;92971.00;5080823;28;20568;-84
2023/01/17 09:16:58;;;;;;;3.33;1.50;;;;;;;6.97;52.18;92965.13;5079483;28;20222;-84
2023/01/17 09:19:25;;;;;;;2.63;1.30;;;;;;;6.90;51.96;92974.69;5079001;28;20228;-84
2023/01/17 09:21:53;;;;;;;2.20;1.50;;;;;;;6.84;51.53;92971.22;5078058;28;20698;-86
2023/01/17 09:24:20;;;;;;;1.87;1.40;;;;;;;6.75;52.43;92972.50;5078914;28;20208;-84
2023/01/17 09:26:46;;;;;;;2.57;1.00;;;;;;;6.58;50.84;92974.09;5080523;28;20203;-85
2023/01/17 09:29:16;;;;;;;1.63;0.90;;;;;;;6.53;50.88;92969.66;5080013;28;20310;-84
2023/01/17 09:31:43;;;;;;;2.63;0.97;;;;;;;6.56;50.90;92971.75;5078191;28;20650;-85
2023/01/17 09:34:10;;;;;;;2.00;0.80;;;;;;;6.62;50.96;92971.91;5082910;28;20197;-85
2023/01/17 09:36:36;;;;;;;0.60;0.60;;;;;;;6.62;49.84;92954.78;5081265;28;20208;-84
2023/01/17 09:39:04;;;;;;;0.80;0.70;;;;;;;6.78;49.58;92948.28;5081200;28;20341;-83
2023/01/17 09:41:32;;;;;;;0.60;0.60;;;;;;;6.98;49.31;92938.53;5080831;28;20204;-83
2023/01/17 09:44:05;;;;;;;1.80;0.77;;;;;;;7.14;48.11;92937.91;5081544;28;20197;-82
2023/01/17 09:46:37;;;;;;;3.33;1.00;;;;;;;7.47;47.29;92937.41;5081488;28;20224;-82
2023/01/17 09:49:07;;;;;;;1.43;0.83;;;;;;;7.77;47.13;92929.59;5081689;28;20228;-82
2023/01/17 09:51:34;;;;;;;2.97;0.80;;;;;;;8.04;47.94;92922.22;5082193;28;20284;-85
2023/01/17 09:54:02;;;;;;;1.60;1.00;;;;;;;8.22;48.45;92918.72;5082517;28;20783;-84
2023/01/17 09:56:34;;;;;;;1.37;1.00;;;;;;;8.22;47.08;92904.09;5080926;28;20252;-84
2023/01/17 09:59:17;;;;;;;4.10;1.00;;;;;;;8.34;46.79;92896.41;5080516;28;20228;-85
2023/01/17 10:01:53;;;;;;;1.10;0.90;;;;;;;7.96;45.61;92874.66;5081500;28;20282;-85
2023/01/17 10:04:40;;;;;;;1.17;1.07;;;;;;;7.51;46.56;92874.50;5080001;28;20583;-85
2023/01/17 10:07:19;;;;;;;3.47;1.00;;;;;;;7.39;46.47;92860.16;5062738;28;20205;-85
2023/01/17 10:09:58;;;;;;;1.30;0.90;;;;;;;7.42;47.38;92847.69;5072488;28;20625;-85
2023/01/17 10:12:33;;;;;;;2.00;0.90;;;;;;;7.56;46.38;92858.47;5072481;28;20228;-85
2023/01/17 10:15:26;;;;;;;1.43;0.90;;;;;;;7.29;46.36;92853.06;5074881;28;20283;-85
2023/01/17 10:18:01;;;;;;;1.10;1.00;;;;;;;7.06;47.28;92853.84;5071620;28;21723;-85
2023/01/17 10:20:42;;;;;;;1.47;1.10;;;;;;;7.19;47.52;92845.94;5080318;28;20211;-85
2023/01/17 10:23:55;;;;;;;2.57;1.07;;;;;;;7.77;47.58;92844.31;5079727;28;20208;-85
2023/01/17 10:26:24;;;;;;;2.47;1.10;;;;;;;8.29;46.93;92845.78;5079481;28;20247;-83
2023/01/17 10:28:55;;;;;;;1.63;0.80;;;;;;;8.41;45.99;92840.66;5079264;28;20259;-82
2023/01/17 10:31:23;;;;;;;2.03;1.00;;;;;;;8.53;45.58;92841.38;5077633;28;20208;-82
2023/01/17 10:33:52;;;;;;;1.87;0.90;;;;;;;8.04;44.62;92840.22;5077290;28;20200;-82
2023/01/17 10:36:21;;;;;;;1.03;0.90;;;;;;;8.09;44.42;92842.06;5078696;28;20201;-85
2023/01/17 10:38:51;;;;;;;1.77;0.70;;;;;;;7.80;44.16;92842.06;5077991;28;20212;-83
2023/01/17 10:41:24;;;;;;;1.77;1.00;;;;;;;7.66;44.79;92835.66;5080025;28;20692;-82
2023/01/17 10:43:59;;;;;;;1.37;0.90;;;;;;;7.59;44.78;92828.09;5079256;28;20212;-84
2023/01/17 10:46:32;;;;;;;1.07;0.93;;;;;;;7.44;44.81;92842.34;5078411;28;20200;-82
2023/01/17 10:49:00;;;;;;;1.20;0.90;;;;;;;7.47;44.23;92829.91;5076375;28;20232;-82
2023/01/17 10:51:48;;;;;;;2.20;0.73;;;;;;;7.48;44.57;92826.34;5076750;28;20199;-82
2023/01/17 10:54:25;;;;;;;0.70;0.70;;;;;;;7.73;44.32;92830.38;5077762;28;20211;-84
2023/01/17 10:56:51;;;;;;;1.23;1.10;;;;;;;7.31;44.78;92819.56;5077327;28;20629;-85
2023/01/17 10:59:29;;;;;;;1.10;1.00;;;;;;;6.97;45.10;92814.22;5076985;28;20239;-84
2023/01/17 11:01:56;;;;;;;1.40;0.90;;;;;;;7.03;45.78;92808.22;5078271;28;20216;-83
2023/01/17 11:04:30;;;;;;;1.50;0.93;;;;;;;7.01;45.51;92810.22;5078357;28;20231;-84
2023/01/17 11:07:19;;;;;;;1.10;0.87;;;;;;;6.87;44.97;92806.34;5079530;28;20230;-84
2023/01/17 11:09:48;;;;;;;1.03;0.90;;;;;;;6.82;45.68;92796.00;5073149;28;20229;-84
2023/01/17 11:12:20;;;;;;;1.33;0.77;;;;;;;6.78;44.88;92787.97;5079977;28;20200;-84
2023/01/17 11:15:18;;;;;;;1.37;0.70;;;;;;;6.79;45.02;92784.44;5080444;28;20201;-83
2023/01/17 11:17:51;;;;;;;0.83;0.73;;;;;;;6.94;45.22;92773.75;5080096;28;20733;-83
2023/01/17 11:20:23;;;;;;;1.00;0.90;;;;;;;6.97;45.35;92769.97;5080395;28;20293;-83
2023/01/17 11:23:05;;;;;;;0.60;0.60;;;;;;;6.93;45.14;92767.84;5079403;28;20291;-82
2023/01/17 11:25:33;;;;;;;10.80;0.97;;;;;;;6.76;45.40;92761.84;5073785;28;20196;-83
2023/01/17 11:28:04;;;;;;;1.10;0.83;;;;;;;6.73;46.09;92764.88;5079582;28;20285;-83
2023/01/17 11:30:32;;;;;;;1.63;0.80;;;;;;;6.71;46.35;92755.88;5076922;28;20270;-83
2023/01/17 11:33:02;;;;;;;0.73;0.73;;;;;;;6.54;46.60;92751.41;5075263;28;20224;-83
2023/01/17 11:35:30;;;;;;;3.37;0.90;;;;;;;6.63;46.68;92762.09;5075623;28;20212;-83
2023/01/17 11:38:03;;;;;;;0.70;0.70;;;;;;;6.71;46.73;92754.09;5074965;28;20258;-82
2023/01/17 11:40:40;;;;;;;1.13;0.70;;;;;;;6.34;46.74;92756.06;5076040;28;20279;-83
2023/01/17 11:43:20;;;;;;;0.83;0.70;;;;;;;6.11;47.19;92754.25;5075439;28;20729;-83
2023/01/17 11:46:02;;;;;;;1.20;0.90;;;;;;;5.97;47.79;92759.72;5072910;28;20212;-83
2023/01/17 11:48:34;;;;;;;0.90;0.90;;;;;;;6.05;47.71;92754.31;5074983;28;20606;-82
2023/01/17 11:51:02;;;;;;;0.70;0.63;;;;;;;6.28;47.85;92746.72;5075620;28;20220;-83
2023/01/17 11:53:32;;;;;;;1.50;1.13;;;;;;;6.36;47.27;92745.59;5076271;28;20204;-83
2023/01/17 11:56:02;;;;;;;2.20;1.27;;;;;;;6.49;47.38;92741.09;5073886;28;20211;-83
2023/01/17 11:58:30;;;;;;;1.43;1.17;;;;;;;6.57;46.93;92738.19;5076802;28;20715;-83
2023/01/17 12:01:11;;;;;;;1.73;0.80;;;;;;;6.70;47.02;92724.41;5079001;28;20201;-83
2023/01/17 12:04:22;;;;;;;1.67;0.77;;;;;;;6.71;47.10;92715.75;5081239;28;20262;-83
2023/01/17 12:06:58;;;;;;;1.73;0.90;;;;;;;6.51;47.63;92720.41;5037157;28;20197;-83
2023/01/17 12:09:34;;;;;;;1.60;0.90;;;;;;;6.56;48.04;92711.06;5080688;28;20231;-82
2023/01/17 12:15:03;;;;;;;1.63;0.97;;;;;;;6.49;48.25;92702.75;5082985;28;20256;-83
2023/01/17 12:17:47;;;;;;;2.33;0.90;;;;;;;6.46;48.08;92697.31;5083069;28;20245;-82
2023/01/17 12:20:22;;;;;;;1.70;0.77;;;;;;;6.58;48.19;92680.97;5083906;28;20262;-83
2023/01/17 12:23:12;;;;;;;1.47;0.90;;;;;;;6.62;48.08;92686.41;5084330;28;20200;-83
2023/01/17 12:25:53;;;;;;;0.70;0.70;;;;;;;6.62;48.23;92663.41;5083619;28;20193;-83
2023/01/17 12:28:45;;;;;;;1.90;1.00;;;;;;;6.67;48.33;92663.50;5083920;28;20220;-83
2023/01/17 12:31:23;;;;;;;4.17;0.80;;;;;;;6.45;48.02;92665.09;5084008;28;20201;-83
2023/01/17 12:33:55;;;;;;;3.50;1.10;;;;;;;6.24;48.85;92666.41;5083247;28;20201;-83
2023/01/17 12:36:37;;;;;;;2.87;0.90;;;;;;;6.09;48.96;92659.19;5082082;28;20215;-83
2023/01/17 12:39:08;;;;;;;3.37;0.70;;;;;;;5.99;49.13;92650.50;5083532;28;20221;-83
2023/01/17 12:41:42;;;;;;;4.40;0.97;;;;;;;5.76;49.80;92643.59;5085599;28;20272;-83
2023/01/17 12:44:14;;;;;;;3.60;0.90;;;;;;;5.73;50.60;92633.81;5082695;28;20201;-83
2023/01/17 12:46:48;;;;;;;1.60;0.80;;;;;;;5.86;50.25;92631.81;5082887;28;20231;-83
2023/01/17 12:49:24;;;;;;;8.23;1.20;;;;;;;5.91;50.88;92623.53;5083049;28;20231;-83
2023/01/17 12:51:56;;;;;;;2.73;0.90;;;;;;;6.01;50.69;92620.41;5083215;28;20209;-83
2023/01/17 12:54:29;;;;;;;0.70;0.70;;;;;;;6.01;50.71;92625.53;5081869;28;20204;-83
2023/01/17 12:57:01;;;;;;;1.17;0.83;;;;;;;5.79;50.63;92617.59;5081171;28;20200;-83
2023/01/17 12:59:33;;;;;;;1.30;0.80;;;;;;;5.81;50.81;92611.28;5083238;28;20228;-83
2023/01/17 13:02:10;;;;;;;2.70;1.10;;;;;;;5.61;50.73;92615.91;5083129;28;20209;-82
2023/01/17 13:04:42;;;;;;;1.63;0.90;;;;;;;5.55;50.71;92606.59;5082889;28;20197;-82
2023/01/17 13:07:18;;;;;;;2.07;1.20;;;;;;;5.68;50.98;92601.28;5084189;28;20208;-83
2023/01/17 13:09:49;;;;;;;2.17;0.90;;;;;;;5.88;50.44;92594.13;5080397;28;20745;-82
2023/01/17 13:12:19;;;;;;;0.90;0.80;;;;;;;5.87;49.31;92596.84;5063188;28;20213;-83
2023/01/17 13:14:46;;;;;;;1.03;0.90;;;;;;;5.71;50.18;92589.84;5067083;28;20204;-83
2023/01/17 13:17:26;;;;;;;3.30;1.10;;;;;;;5.55;50.12;92601.47;5081086;28;20676;-83